Allenwood, New Jersey
Current Conditions -  °F | °C
As of 7:35 AM on Saturday 01 Nov 2014 (Local Time) from KBLM Reporting Station
Overcast Overcast  
Wind Chill: 39°   Ceiling: 5500
Heat Index: 45°   Visibility: 10mi
Dew Point: 37°   Wind: 12mph
Humidity: 76%   Direction: 10°N
Pressure: 29.81"   Gusts: 17mph
Location:  40.14°N, 74.1°W
Report Text: KBLM 011135Z AUTO 01010G15KT 10SM FEW028 SCT035 OVC055 07/03 A2981 RMK AO1 P0002
Loading
Personal Weather Stations






























Interactive Weather Map
Tropical Storm Tracking
New forecast layout! Learn more

10-Day Weather Forecast

Advertisements
Track Severe Weather on mobile